Time;durP1;ratioP1;P1;durP2;ratioP2;P2;SDS_P1;SDS_P2;PMS_P1;PMS_P2;Temp;Humidity;BMP_temperature;BMP_pressure;BME280_temperature;BME280_humidity;BME280_pressure;Samples;Min_cycle;Max_cycle;Signal;HPM_P1;HPM_P2
2021/11/14 00:02:57;;;;;;;71.10;29.60;;;;;;;3.84;81.03;100124.89;226937;1199;140762;-69
2021/11/14 00:08:12;;;;;;;66.80;28.50;;;;;;;3.81;80.70;100129.51;226767;1200;143220;-69
2021/11/14 00:13:17;;;;;;;71.80;31.30;;;;;;;3.80;80.57;100137.39;226555;1199;141074;-68
2021/11/14 00:18:21;;;;;;;66.80;32.50;;;;;;;3.73;80.58;100138.27;227496;1200;140524;-72
2021/11/14 00:23:24;;;;;;;63.60;30.50;;;;;;;3.68;81.07;100137.10;227256;1200;140123;-69
2021/11/14 00:28:27;;;;;;;67.40;29.20;;;;;;;3.69;81.11;100136.14;227055;1199;139736;-69
2021/11/14 00:33:30;;;;;;;68.00;30.10;;;;;;;3.74;80.86;100145.75;227645;1199;140878;-70
2021/11/14 00:38:33;;;;;;;70.10;31.80;;;;;;;3.75;80.89;100151.48;229121;1199;141605;-69
2021/11/14 00:43:37;;;;;;;78.50;33.00;;;;;;;3.74;81.05;100147.16;229251;1199;139761;-71
2021/11/14 00:48:42;;;;;;;74.30;34.90;;;;;;;3.77;81.09;100148.45;229080;1199;139139;-71
2021/11/14 00:53:45;;;;;;;73.20;32.20;;;;;;;3.80;80.52;100155.29;229212;1199;140885;-69
2021/11/14 00:58:49;;;;;;;71.00;30.40;;;;;;;3.80;80.85;100154.20;228182;1200;139693;-69
2021/11/14 01:03:53;;;;;;;73.20;32.80;;;;;;;3.81;80.82;100155.71;227143;1199;141075;-69
2021/11/14 01:08:57;;;;;;;64.10;24.90;;;;;;;3.82;80.83;100166.60;228285;1199;140758;-71
2021/11/14 01:13:59;;;;;;;75.80;33.10;;;;;;;3.86;80.74;100170.19;228022;1199;142861;-70
2021/11/14 01:19:01;;;;;;;77.00;30.60;;;;;;;3.90;81.07;100168.55;228309;1199;140681;-72
2021/11/14 01:24:04;;;;;;;68.40;32.40;;;;;;;3.93;81.29;100169.41;226463;1199;141377;-69
2021/11/14 01:29:08;;;;;;;66.90;26.30;;;;;;;3.89;81.03;100166.20;227214;1199;140307;-69
2021/11/14 01:34:11;;;;;;;70.70;30.60;;;;;;;3.91;80.95;100170.31;227517;1199;142050;-68
2021/11/14 01:39:15;;;;;;;77.70;29.80;;;;;;;3.90;81.10;100168.35;226316;1200;140616;-68
2021/11/14 01:44:18;;;;;;;74.30;33.20;;;;;;;3.81;80.73;100168.85;226864;1199;141626;-69
2021/11/14 01:49:21;;;;;;;68.00;29.20;;;;;;;3.73;81.03;100170.48;227233;1200;140020;-68
2021/11/14 01:54:34;;;;;;;65.60;29.00;;;;;;;3.74;80.92;100170.24;228118;1199;244331;-70
2021/11/14 01:59:38;;;;;;;68.90;30.30;;;;;;;3.70;81.03;100170.80;227915;1199;140648;-69
2021/11/14 02:04:42;;;;;;;50.00;25.70;;;;;;;3.64;81.08;100174.73;227018;1199;139654;-69
2021/11/14 02:09:46;;;;;;;61.10;22.40;;;;;;;3.60;81.03;100179.05;226757;1200;233880;-73
2021/11/14 02:14:48;;;;;;;69.30;28.90;;;;;;;3.63;81.17;100180.52;226883;1199;140214;-73
2021/11/14 02:19:52;;;;;;;55.70;26.80;;;;;;;3.66;81.27;100182.27;228027;1199;139950;-70
2021/11/14 02:25:11;;;;;;;57.60;27.10;;;;;;;3.67;81.37;100193.30;226886;1199;139368;-69
2021/11/14 02:30:17;;;;;;;58.10;26.60;;;;;;;3.67;81.10;100190.34;228545;1199;140243;-71
2021/11/14 02:35:28;;;;;;;65.30;30.00;;;;;;;3.71;81.17;100196.56;228877;1199;139835;-69
2021/11/14 02:40:31;;;;;;;64.80;27.90;;;;;;;3.72;81.14;100198.73;228031;1199;140072;-69
2021/11/14 02:45:35;;;;;;;58.00;28.70;;;;;;;3.70;81.12;100204.79;228911;1199;141000;-68
2021/11/14 02:50:39;;;;;;;47.90;24.80;;;;;;;3.65;81.04;100206.98;227834;1199;140100;-68
2021/11/14 02:55:43;;;;;;;53.00;23.00;;;;;;;3.66;80.86;100213.13;229189;1199;140202;-69
2021/11/14 03:01:00;;;;;;;53.00;21.70;;;;;;;3.66;80.86;100216.66;228704;1199;140280;-70
2021/11/14 03:06:04;;;;;;;47.40;23.50;;;;;;;3.63;80.96;100218.89;228245;1199;139499;-71
2021/11/14 03:11:13;;;;;;;47.90;23.00;;;;;;;3.61;80.88;100221.17;228072;1199;140721;-71
2021/11/14 03:16:21;;;;;;;43.70;24.00;;;;;;;3.58;80.53;100227.84;228666;1199;140710;-72
2021/11/14 03:21:28;;;;;;;51.70;24.80;;;;;;;3.50;80.67;100231.02;227636;1200;160111;-70
2021/11/14 03:26:57;;;;;;;54.50;25.10;;;;;;;3.46;80.71;100236.42;227651;1199;139745;-70
2021/11/14 03:32:01;;;;;;;48.70;19.80;;;;;;;3.45;81.10;100243.17;227446;1199;139110;-70
2021/11/14 03:37:20;;;;;;;48.60;22.20;;;;;;;3.50;80.89;100245.63;226759;1200;140265;-71
2021/11/14 03:42:26;;;;;;;50.80;24.20;;;;;;;3.48;80.86;100250.08;229028;1199;141958;-71
2021/11/14 03:47:42;;;;;;;45.90;20.80;;;;;;;3.41;81.02;100251.21;228454;1199;140348;-71
2021/11/14 03:53:20;;;;;;;41.30;19.30;;;;;;;3.39;80.88;100251.95;227237;1198;139820;-70
2021/11/14 03:58:40;;;;;;;42.50;22.90;;;;;;;3.43;80.85;100256.99;226795;1200;140217;-72
2021/11/14 04:03:53;;;;;;;46.00;22.20;;;;;;;3.39;80.82;100257.35;227674;1199;140958;-72
2021/11/14 04:08:59;;;;;;;43.00;19.30;;;;;;;3.32;80.84;100261.00;226486;1199;140207;-72
2021/11/14 04:14:23;;;;;;;44.70;18.40;;;;;;;3.21;80.81;100260.02;227034;1199;140278;-69
2021/11/14 04:19:29;;;;;;;42.80;20.00;;;;;;;3.19;81.03;100264.27;226585;1199;141731;-68
2021/11/14 04:24:32;;;;;;;39.10;19.60;;;;;;;3.17;81.17;100267.52;226441;1199;140379;-68
2021/11/14 04:30:05;;;;;;;;;;;;;;;;;;;;;
2021/11/14 04:35:18;;;;;;;41.30;20.70;;;;;;;3.04;81.37;100274.45;227257;1200;140752;-70
2021/11/14 04:40:23;;;;;;;47.00;23.40;;;;;;;3.07;81.52;100282.71;226744;1199;140567;-73
2021/11/14 04:45:55;;;;;;;37.30;20.00;;;;;;;3.10;81.54;100286.77;226611;1199;141461;-72
2021/11/14 04:51:05;;;;;;;41.40;22.00;;;;;;;3.08;81.51;100290.48;227374;1200;140046;-69
2021/11/14 04:56:16;;;;;;;40.60;18.00;;;;;;;3.06;81.50;100294.94;228392;1199;140444;-68
2021/11/14 05:01:26;;;;;;;43.90;19.70;;;;;;;3.04;81.20;100298.84;228920;1200;140543;-70
2021/11/14 05:06:29;;;;;;;54.30;22.10;;;;;;;2.99;81.07;100309.50;229058;1199;140204;-71
2021/11/14 05:11:31;;;;;;;44.20;24.00;;;;;;;2.98;81.28;100316.33;228593;1199;139349;-70
2021/11/14 05:16:33;;;;;;;39.30;18.40;;;;;;;3.04;81.32;100320.48;228685;1199;140033;-70
2021/11/14 05:21:38;;;;;;;46.00;20.90;;;;;;;3.08;80.99;100323.70;226967;1199;139864;-70
2021/11/14 05:27:01;;;;;;;50.80;25.40;;;;;;;3.05;81.10;100325.80;227303;1199;139491;-70
2021/11/14 05:32:05;;;;;;;43.40;22.20;;;;;;;2.97;81.17;100326.42;227801;1199;139364;-71
2021/11/14 05:37:12;;;;;;;41.70;17.60;;;;;;;2.93;81.30;100325.48;226900;1200;139341;-69
2021/11/14 05:42:20;;;;;;;45.60;21.50;;;;;;;2.94;81.19;100332.89;226530;1200;139823;-67
2021/11/14 05:47:25;;;;;;;48.10;25.90;;;;;;;2.93;81.32;100335.20;227042;1199;139910;-68
2021/11/14 05:52:32;;;;;;;41.00;16.80;;;;;;;2.89;81.78;100339.77;226648;1199;139263;-69
2021/11/14 05:57:54;;;;;;;40.50;16.30;;;;;;;2.84;81.34;100350.27;226678;1199;139284;-68
2021/11/14 06:08:37;;;;;;;41.30;19.10;;;;;;;2.72;81.58;100367.42;226805;1200;141730;-68
2021/11/14 06:13:41;;;;;;;37.20;18.90;;;;;;;2.68;81.64;100374.52;227922;1199;139458;-72
2021/11/14 06:18:43;;;;;;;37.40;16.90;;;;;;;2.67;81.99;100381.19;226735;1200;139122;-70
2021/11/14 06:23:49;;;;;;;36.80;20.80;;;;;;;2.73;81.64;100382.52;227449;1200;140030;-71
2021/11/14 06:28:59;;;;;;;33.30;15.90;;;;;;;2.73;81.54;100387.27;227456;1199;140119;-69
2021/11/14 06:34:09;;;;;;;39.60;18.60;;;;;;;2.66;81.57;100390.96;226824;1200;139878;-68
2021/11/14 06:39:15;;;;;;;29.60;16.70;;;;;;;2.64;81.90;100394.39;227907;1199;138965;-69
2021/11/14 06:44:20;;;;;;;43.10;16.80;;;;;;;2.67;81.96;100397.67;228631;1199;139551;-69
2021/11/14 06:49:23;;;;;;;48.20;21.00;;;;;;;2.74;81.53;100399.83;227819;1199;140443;-69
2021/11/14 06:54:25;;;;;;;35.40;19.30;;;;;;;2.84;82.06;100405.16;229056;1199;139659;-68
2021/11/14 06:59:28;;;;;;;35.30;18.70;;;;;;;2.91;81.72;100415.06;229295;1200;139857;-71
2021/11/14 07:04:30;;;;;;;37.10;18.90;;;;;;;2.99;81.96;100423.54;229035;1199;140827;-70
2021/11/14 07:09:54;;;;;;;34.40;15.50;;;;;;;3.06;81.98;100436.97;228234;1200;139563;-67
2021/11/14 07:15:08;;;;;;;40.30;17.40;;;;;;;3.13;81.48;100449.59;227496;1200;141350;-68
2021/11/14 07:20:13;;;;;;;39.50;21.10;;;;;;;3.17;81.68;100453.30;227458;1200;141324;-67
2021/11/14 07:25:19;;;;;;;31.40;16.20;;;;;;;3.22;81.86;100454.52;227251;1200;140647;-69
2021/11/14 07:30:24;;;;;;;40.80;18.40;;;;;;;3.20;81.74;100458.37;228055;1200;140120;-70
2021/11/14 07:35:30;;;;;;;39.00;19.30;;;;;;;3.29;81.65;100463.77;226636;1199;140644;-68
2021/11/14 07:40:39;;;;;;;38.60;19.50;;;;;;;3.37;81.83;100468.61;226844;1199;141840;-68
2021/11/14 07:45:42;;;;;;;37.40;18.70;;;;;;;3.42;81.77;100469.68;228134;1199;141317;-68
2021/11/14 07:50:53;;;;;;;39.30;18.50;;;;;;;3.45;81.48;100469.54;226642;1199;140721;-67
2021/11/14 07:55:57;;;;;;;38.40;19.30;;;;;;;3.47;81.33;100476.98;226442;1200;142147;-68
2021/11/14 08:01:00;;;;;;;41.10;22.50;;;;;;;3.56;81.72;100486.05;226600;1200;140711;-69
2021/11/14 08:06:05;;;;;;;36.10;19.40;;;;;;;3.64;81.95;100499.02;226678;1200;140259;-72
2021/11/14 08:11:09;;;;;;;42.50;17.60;;;;;;;3.64;81.63;100507.13;226335;1199;140673;-67
2021/11/14 08:16:13;;;;;;;37.20;20.80;;;;;;;3.57;81.45;100515.58;226595;1200;144206;-68
2021/11/14 08:21:26;;;;;;;40.30;17.80;;;;;;;3.46;81.36;100522.65;226873;1200;139736;-70
2021/11/14 08:26:32;;;;;;;29.60;15.00;;;;;;;3.37;81.52;100527.30;227092;1200;142480;-70
2021/11/14 08:31:38;;;;;;;44.40;19.00;;;;;;;3.39;81.70;100530.73;226352;1200;139760;-68
2021/11/14 08:36:40;;;;;;;41.40;18.70;;;;;;;3.45;81.80;100533.46;228687;1199;140207;-67
2021/11/14 08:41:43;;;;;;;29.90;14.30;;;;;;;3.49;81.64;100537.80;227029;1200;142746;-67
2021/11/14 08:46:45;;;;;;;29.10;14.40;;;;;;;3.50;81.59;100538.72;228061;1200;142175;-67
2021/11/14 08:51:49;;;;;;;33.90;17.80;;;;;;;3.56;81.33;100541.25;227117;1200;140578;-69
2021/11/14 08:56:55;;;;;;;32.10;16.20;;;;;;;3.64;81.50;100549.95;226808;1200;141846;-68
2021/11/14 09:02:02;;;;;;;39.60;18.00;;;;;;;3.76;81.56;100552.34;226955;1200;140144;-68
2021/11/14 09:07:17;;;;;;;32.80;16.30;;;;;;;3.88;81.50;100557.84;228998;1200;141272;-69
2021/11/14 09:12:20;;;;;;;29.60;17.10;;;;;;;4.00;81.09;100565.50;229277;1199;141186;-71
2021/11/14 09:17:23;;;;;;;31.00;16.20;;;;;;;4.10;80.97;100570.63;229128;1199;141914;-74
2021/11/14 09:22:26;;;;;;;283.00;121.50;;;;;;;4.11;80.45;100573.04;226885;1200;141596;-69
2021/11/14 09:27:29;;;;;;;41.80;23.20;;;;;;;4.14;80.42;100580.64;229258;1199;140372;-71
2021/11/14 09:32:32;;;;;;;36.10;20.40;;;;;;;4.26;80.84;100578.14;228996;1200;140282;-70
2021/11/14 09:37:35;;;;;;;33.70;15.80;;;;;;;4.47;81.02;100580.73;228800;1200;139598;-70
2021/11/14 09:42:38;;;;;;;36.20;19.00;;;;;;;4.60;80.48;100576.20;228630;1199;140749;-74
2021/11/14 09:47:42;;;;;;;38.80;19.80;;;;;;;4.78;80.48;100575.92;228419;1199;140501;-72
2021/11/14 09:52:46;;;;;;;39.20;18.90;;;;;;;4.92;80.55;100578.64;228273;1199;140580;-70
2021/11/14 09:57:51;;;;;;;45.50;24.10;;;;;;;4.93;79.96;100576.66;227090;1200;141293;-69
2021/11/14 10:03:06;;;;;;;38.20;21.90;;;;;;;5.10;80.18;100583.83;228906;1199;140193;-72
2021/11/14 10:08:10;;;;;;;47.40;21.20;;;;;;;5.20;79.96;100586.19;228790;1199;141697;-72
2021/11/14 10:13:22;;;;;;;47.20;23.00;;;;;;;5.27;79.84;100584.91;229294;1200;140458;-68
2021/11/14 10:18:24;;;;;;;46.10;24.40;;;;;;;5.49;79.90;100582.94;228926;1200;141822;-73
2021/11/14 10:23:28;;;;;;;43.50;23.80;;;;;;;5.72;80.17;100590.42;228355;1199;139812;-73
2021/11/14 10:28:32;;;;;;;48.10;23.40;;;;;;;5.95;80.12;100591.41;228231;1199;163350;-69
2021/11/14 10:33:35;;;;;;;46.30;22.60;;;;;;;6.04;79.52;100592.33;227273;1200;140802;-70
2021/11/14 10:38:39;;;;;;;39.30;21.00;;;;;;;6.21;79.52;100593.37;226460;1200;142664;-68
2021/11/14 10:43:43;;;;;;;47.40;24.60;;;;;;;6.25;78.91;100592.58;226385;1199;142886;-72
2021/11/14 10:48:47;;;;;;;50.80;24.90;;;;;;;6.36;79.00;100592.88;227625;1200;141200;-67
2021/11/14 10:53:50;;;;;;;56.50;28.70;;;;;;;6.48;79.20;100594.58;226709;1200;141018;-65
2021/11/14 10:58:54;;;;;;;45.80;26.20;;;;;;;6.57;79.16;100592.08;227601;1199;141580;-68
2021/11/14 11:03:56;;;;;;;51.30;25.10;;;;;;;6.63;78.64;100591.04;227072;1200;142759;-74
2021/11/14 11:09:03;;;;;;;50.10;24.70;;;;;;;6.60;78.35;100589.63;226356;1200;142316;-70
2021/11/14 11:14:08;;;;;;;44.40;23.10;;;;;;;6.62;78.57;100587.11;226590;1199;163743;-70
2021/11/14 11:19:25;;;;;;;45.80;25.20;;;;;;;6.64;78.69;100590.16;227704;1200;139771;-71
2021/11/14 11:24:27;;;;;;;50.50;26.30;;;;;;;6.56;77.83;100599.08;228971;1199;141131;-70
2021/11/14 11:29:33;;;;;;;51.50;28.40;;;;;;;6.48;78.28;100600.58;229311;1199;141543;-72
2021/11/14 11:34:38;;;;;;;55.90;27.20;;;;;;;6.56;78.33;100599.28;226811;1200;142238;-71
2021/11/14 11:39:42;;;;;;;51.30;29.80;;;;;;;6.63;78.43;100597.08;228329;1200;140372;-70
2021/11/14 11:44:46;;;;;;;50.00;26.70;;;;;;;6.67;78.17;100601.45;227024;1200;140899;-70
2021/11/14 11:50:02;;;;;;;48.30;26.80;;;;;;;6.61;77.85;100600.73;226681;1199;140311;-70
2021/11/14 11:55:53;;;;;;;54.40;28.50;;;;;;;6.68;78.18;100602.55;226591;1199;140341;-70
2021/11/14 12:01:00;;;;;;;51.20;26.20;;;;;;;6.69;78.12;100609.66;226671;1200;141078;-71
2021/11/14 12:06:18;;;;;;;47.40;24.80;;;;;;;6.75;78.07;100615.65;226825;1200;139540;-70
2021/11/14 12:11:55;;;;;;;50.10;26.70;;;;;;;6.85;78.18;100617.79;226973;1199;139779;-68
2021/11/14 12:18:01;;;;;;;48.30;27.80;;;;;;;6.88;77.96;100618.28;226345;1200;140238;-70
2021/11/14 12:29:31;;;;;;;;;;;;;;;;;;;;;
2021/11/14 12:35:08;;;;;;;56.50;29.00;;;;;;;6.83;77.50;100630.77;226913;1200;140196;-71
2021/11/14 12:40:55;;;;;;;;;;;;;;;;;;;;;
2021/11/14 12:46:51;;;;;;;45.60;24.80;;;;;;;6.90;77.96;100640.44;227769;1199;140170;-71
2021/11/14 12:51:55;;;;;;;43.60;23.40;;;;;;;6.87;78.01;100644.16;226581;1200;140397;-71
2021/11/14 12:57:14;;;;;;;53.30;30.40;;;;;;;6.88;77.69;100649.63;228128;1200;143442;-71
2021/11/14 13:02:27;;;;;;;57.80;28.60;;;;;;;6.83;78.04;100659.90;226540;1200;140852;-70
2021/11/14 13:07:36;;;;;;;61.20;31.00;;;;;;;6.80;78.03;100669.47;228144;1200;140453;-71
2021/11/14 13:13:03;;;;;;;66.10;34.30;;;;;;;6.77;78.22;100668.95;227447;1200;140793;-71
2021/11/14 13:18:06;;;;;;;67.50;32.70;;;;;;;6.79;77.96;100675.88;229161;1200;140370;-71
2021/11/14 13:23:10;;;;;;;56.00;30.90;;;;;;;6.86;77.97;100683.73;227628;1199;141098;-71
2021/11/14 13:28:16;;;;;;;57.10;30.20;;;;;;;6.87;77.86;100682.33;228366;1199;140429;-70
2021/11/14 13:33:20;;;;;;;54.70;30.80;;;;;;;6.87;78.09;100687.91;227527;1199;140329;-71
2021/11/14 13:38:59;;;;;;;;;;;;;;;;;;;;;
2021/11/14 13:44:04;;;;;;;63.50;32.60;;;;;;;6.78;78.28;100692.33;227277;1199;141243;-72
2021/11/14 13:49:07;;;;;;;66.80;34.00;;;;;;;6.73;77.70;100698.48;227919;1199;141075;-72
2021/11/14 13:54:29;;;;;;;57.80;33.70;;;;;;;6.65;78.20;100700.38;227278;1200;140152;-72
2021/11/14 13:59:39;;;;;;;60.90;34.80;;;;;;;6.52;78.12;100704.65;227891;1199;139569;-70
2021/11/14 14:05:25;;;;;;;;;;;;;;;;;;;;;
2021/11/14 14:11:32;;;;;;;71.50;36.40;;;;;;;6.30;77.93;100720.42;228010;1199;152026;-70
2021/11/14 14:16:46;;;;;;;63.30;32.20;;;;;;;6.13;78.27;100725.47;227175;1199;139317;-71
2021/11/14 14:22:12;;;;;;;81.20;34.00;;;;;;;6.02;78.46;100725.13;227012;1199;139476;-71
2021/11/14 14:27:25;;;;;;;72.70;35.00;;;;;;;6.01;78.48;100726.32;226743;1199;140963;-71
2021/11/14 14:32:41;;;;;;;;;;;;;;;;;;;;;
2021/11/14 14:38:11;;;;;;;75.20;38.00;;;;;;;5.90;78.86;100744.90;227715;1199;140314;-70
2021/11/14 14:43:19;;;;;;;76.10;37.60;;;;;;;5.85;78.96;100747.23;227484;1199;140721;-71
2021/11/14 14:48:31;;;;;;;80.90;37.80;;;;;;;5.86;78.78;100754.66;226665;1199;140843;-70
2021/11/14 14:53:58;;;;;;;;;;;;;;;;;;;;;
2021/11/14 14:59:31;;;;;;;77.40;38.20;;;;;;;5.75;79.04;100755.80;226643;1199;140009;-70
2021/11/14 15:04:46;;;;;;;77.20;33.50;;;;;;;5.70;79.38;100763.29;228179;1199;140240;-70
2021/11/14 15:10:03;;;;;;;76.60;38.90;;;;;;;5.69;79.46;100765.44;228249;1199;140983;-71
2021/11/14 15:15:52;;;;;;;77.80;40.30;;;;;;;5.68;79.08;100772.66;226729;1199;140816;-71
2021/11/14 15:21:00;;;;;;;76.20;41.80;;;;;;;5.67;79.62;100781.63;228885;1200;139826;-71
2021/11/14 15:26:06;;;;;;;;;;;;;;;5.68;79.61;100788.39;228968;1200;139920;-71
2021/11/14 15:31:24;;;;;;;;;;;;;;;;;;;;;
2021/11/14 15:36:37;;;;;;;73.50;38.00;;;;;;;5.69;79.40;100803.54;227182;1199;141183;-70
2021/11/14 15:41:44;;;;;;;81.60;40.40;;;;;;;5.67;79.74;100807.31;227788;1200;163557;-70
2021/11/14 15:46:50;;;;;;;70.70;33.80;;;;;;;5.68;79.71;100815.11;227860;1200;140158;-71
2021/11/14 15:51:54;;;;;;;79.80;38.30;;;;;;;5.73;79.91;100817.59;226880;1200;141587;-70
2021/11/14 15:57:17;;;;;;;;;;;;;;;;;;;;;
2021/11/14 16:02:21;;;;;;;75.50;39.90;;;;;;;5.67;80.09;100820.73;227404;1199;139827;-70
2021/11/14 16:07:24;;;;;;;86.50;37.40;;;;;;;5.63;80.21;100828.67;226865;1199;140279;-70
2021/11/14 16:12:33;;;;;;;77.40;38.60;;;;;;;5.62;80.15;100829.40;226826;1199;140839;-70
2021/11/14 16:17:38;;;;;;;78.70;40.00;;;;;;;5.58;80.03;100838.85;227859;1199;139989;-71
2021/11/14 16:22:41;;;;;;;83.80;38.30;;;;;;;5.53;80.19;100850.34;227353;1200;140309;-70
2021/11/14 16:27:45;;;;;;;77.30;37.50;;;;;;;5.55;80.10;100857.58;227198;1199;140436;-70
2021/11/14 16:32:47;;;;;;;80.60;40.10;;;;;;;5.52;79.99;100859.59;226894;1199;141383;-70
2021/11/14 16:37:51;;;;;;;93.10;43.70;;;;;;;5.42;80.05;100867.52;227190;1199;141482;-70
2021/11/14 16:42:54;;;;;;;88.10;38.80;;;;;;;5.37;80.23;100869.56;226775;1200;140725;-71
2021/11/14 16:47:59;;;;;;;81.10;35.00;;;;;;;5.34;80.44;100872.55;227579;1199;139724;-70
2021/11/14 16:53:05;;;;;;;88.20;39.70;;;;;;;5.36;80.42;100877.16;227218;1197;142521;-71
2021/11/14 16:58:35;;;;;;;93.20;40.70;;;;;;;5.34;80.23;100877.90;226539;1200;140695;-70
2021/11/14 17:03:43;;;;;;;;;;;;;;;5.33;80.52;100882.16;227610;1199;140224;-70
2021/11/14 17:08:46;;;;;;;;;;;;;;;5.28;80.39;100883.70;228707;1199;126078;-71
2021/11/14 17:13:50;;;;;;;87.20;39.00;;;;;;;5.31;80.52;100889.90;227960;1199;126488;-70
2021/11/14 17:18:52;;;;;;;88.10;39.90;;;;;;;5.38;80.25;100894.27;227899;1199;141409;-71
2021/11/14 17:23:55;;;;;;;83.80;40.20;;;;;;;5.37;80.52;100903.23;229088;1198;140228;-71
2021/11/14 17:28:59;;;;;;;90.10;40.30;;;;;;;5.32;80.44;100908.55;228592;1199;140997;-70
2021/11/14 17:34:02;;;;;;;88.80;41.50;;;;;;;5.33;80.29;100912.04;229182;1199;140585;-71
2021/11/14 17:39:12;;;;;;;98.10;42.30;;;;;;;5.37;80.46;100918.70;229159;1199;141779;-71
2021/11/14 17:44:19;;;;;;;97.30;43.80;;;;;;;5.38;80.20;100917.48;228181;1199;140722;-71
2021/11/14 17:49:23;;;;;;;92.60;38.00;;;;;;;5.44;80.32;100914.78;227260;1199;140101;-71
2021/11/14 17:54:30;;;;;;;103.70;44.50;;;;;;;5.51;80.10;100923.29;227153;1199;140714;-70
2021/11/14 17:59:35;;;;;;;100.20;47.20;;;;;;;5.55;80.68;100925.69;227160;1199;141353;-70
2021/11/14 18:04:59;;;;;;;97.70;44.10;;;;;;;5.55;80.35;100930.58;227340;1199;141498;-69
2021/11/14 18:10:03;;;;;;;102.60;42.10;;;;;;;5.51;80.23;100932.73;227032;1199;141247;-70
2021/11/14 18:15:13;;;;;;;95.50;44.00;;;;;;;5.53;80.47;100930.13;227976;1199;144829;-71
2021/11/14 18:20:21;;;;;;;90.40;41.30;;;;;;;5.54;80.52;100937.15;227253;1200;141200;-69
2021/11/14 18:25:40;;;;;;;100.20;45.50;;;;;;;5.54;80.38;100946.02;226451;1199;140483;-70
2021/11/14 18:30:44;;;;;;;87.40;38.00;;;;;;;5.50;80.16;100953.95;227516;1199;142250;-68
2021/11/14 18:35:50;;;;;;;111.50;47.80;;;;;;;5.48;79.96;100954.43;227278;1199;140776;-70
2021/11/14 18:40:59;;;;;;;94.20;43.80;;;;;;;5.46;80.19;100950.64;227085;1199;140401;-69
2021/11/14 18:46:04;;;;;;;93.30;38.10;;;;;;;5.45;80.19;100953.94;226590;1199;140321;-71
2021/11/14 18:51:11;;;;;;;95.60;42.50;;;;;;;5.51;80.12;100960.36;227335;1199;140029;-70
2021/11/14 18:56:14;;;;;;;104.40;47.20;;;;;;;5.48;80.16;100959.45;226593;1200;141399;-70
2021/11/14 19:01:20;;;;;;;97.30;43.70;;;;;;;5.40;80.32;100956.24;226713;1200;142182;-70
2021/11/14 19:06:25;;;;;;;87.80;36.80;;;;;;;5.37;80.23;100962.43;226865;1199;142046;-70
2021/11/14 19:11:31;;;;;;;82.40;43.50;;;;;;;5.33;80.30;100974.84;227889;1199;141012;-70
2021/11/14 19:16:34;;;;;;;88.30;42.00;;;;;;;5.29;80.50;100975.67;226627;1200;140135;-68
2021/11/14 19:21:51;;;;;;;81.60;41.40;;;;;;;5.22;80.14;100980.97;227742;1186;140469;-70
2021/11/14 19:26:54;;;;;;;96.10;39.20;;;;;;;5.19;80.29;100988.48;226944;1199;140267;-69
2021/11/14 19:31:57;;;;;;;91.20;41.30;;;;;;;5.23;80.23;100990.88;228925;1200;151103;-71
2021/11/14 19:37:41;;;;;;;103.40;47.50;;;;;;;5.26;80.19;100997.33;228763;1199;140618;-71
2021/11/14 19:42:45;;;;;;;91.80;43.60;;;;;;;5.31;80.66;101008.42;228670;1199;140426;-71
2021/11/14 19:47:57;;;;;;;86.20;36.20;;;;;;;5.34;80.67;101007.36;228201;1199;139969;-68
2021/11/14 19:53:03;;;;;;;76.30;39.40;;;;;;;5.40;80.30;101016.23;227306;1200;140269;-70
2021/11/14 19:58:09;;;;;;;87.80;41.20;;;;;;;5.37;80.69;101016.90;228607;1199;141520;-69
2021/11/14 20:03:13;;;;;;;79.70;38.50;;;;;;;5.33;80.78;101032.17;228499;1200;140183;-70
2021/11/14 20:08:19;;;;;;;74.40;34.90;;;;;;;5.32;80.43;101040.02;227726;1200;140673;-70
2021/11/14 20:13:45;;;;;;;79.40;39.90;;;;;;;5.34;80.71;101044.05;227566;1200;140315;-70
2021/11/14 20:19:21;;;;;;;65.10;36.30;;;;;;;5.28;80.73;101046.27;227211;1199;140078;-69
2021/11/14 20:24:39;;;;;;;61.40;32.80;;;;;;;5.20;80.91;101043.40;226506;1199;140435;-70
2021/11/14 20:30:16;;;;;;;61.70;26.60;;;;;;;5.16;80.83;101047.79;226310;1200;140472;-68
2021/11/14 20:35:20;;;;;;;61.50;32.50;;;;;;;5.21;80.98;101052.11;226829;1200;140779;-68
2021/11/14 20:40:28;;;;;;;69.50;32.80;;;;;;;5.20;81.13;101054.41;226488;1199;140358;-68
2021/11/14 20:45:33;;;;;;;59.50;28.80;;;;;;;5.13;80.93;101055.52;226961;1199;141471;-69
2021/11/14 20:50:38;;;;;;;57.40;28.60;;;;;;;5.04;80.82;101060.84;226979;1199;140876;-70
2021/11/14 20:56:30;;;;;;;65.60;31.80;;;;;;;5.02;80.80;101071.48;227073;1200;143874;-71
2021/11/14 21:01:34;;;;;;;61.60;29.60;;;;;;;4.99;81.15;101080.09;226931;1199;140205;-69
2021/11/14 21:06:37;;;;;;;52.70;26.70;;;;;;;4.95;81.27;101081.34;227776;1199;141746;-68
2021/11/14 21:11:40;;;;;;;60.40;28.70;;;;;;;4.98;81.12;101079.80;227076;1199;141197;-67
2021/11/14 21:16:44;;;;;;;57.20;29.60;;;;;;;4.98;81.26;101089.31;227497;1199;141450;-68
2021/11/14 21:22:17;;;;;;;60.60;28.70;;;;;;;4.97;81.32;101089.14;227049;1200;140111;-69
2021/11/14 21:27:50;;;;;;;63.10;27.60;;;;;;;4.97;81.01;101090.00;228393;1199;140466;-70
2021/11/14 21:32:57;;;;;;;57.70;29.10;;;;;;;4.98;80.84;101090.20;228637;1200;140589;-70
2021/11/14 21:38:09;;;;;;;52.00;25.90;;;;;;;5.01;81.16;101093.61;228979;1199;139722;-70
2021/11/14 21:43:15;;;;;;;59.60;27.20;;;;;;;4.99;81.23;101099.41;228893;1199;139406;-70
2021/11/14 21:48:19;;;;;;;58.70;33.60;;;;;;;5.06;81.14;101095.66;229306;1199;141551;-70
2021/11/14 21:53:24;;;;;;;57.10;27.40;;;;;;;5.05;81.08;101092.59;226939;1199;140453;-70
2021/11/14 21:58:48;;;;;;;63.90;31.10;;;;;;;5.00;80.75;101100.08;227277;1199;139692;-70
2021/11/14 22:04:00;;;;;;;59.70;32.40;;;;;;;4.94;80.67;101101.00;227877;1199;230962;-71
2021/11/14 22:09:04;;;;;;;66.80;33.60;;;;;;;4.86;81.12;101098.61;226248;1200;145818;-69
2021/11/14 22:14:31;;;;;;;64.50;29.70;;;;;;;4.82;81.02;101098.50;227060;1199;139097;-72
2021/11/14 22:19:36;;;;;;;48.10;25.30;;;;;;;4.85;81.07;101100.32;226266;1199;140992;-71
2021/11/14 22:24:47;;;;;;;66.00;30.60;;;;;;;4.81;81.28;101103.02;226492;1200;139436;-68
2021/11/14 22:29:50;;;;;;;53.40;25.30;;;;;;;4.77;81.35;101105.22;227478;1199;140607;-71
2021/11/14 22:34:54;;;;;;;52.70;28.00;;;;;;;4.77;81.34;101107.01;226696;1199;140086;-72
2021/11/14 22:40:00;;;;;;;48.70;26.50;;;;;;;4.72;81.51;101108.52;227410;1200;139719;-71
2021/11/14 22:45:04;;;;;;;;;;;;;;;4.69;81.62;101117.16;226562;1200;140697;-69
2021/11/14 22:50:08;;;;;;;37.20;21.90;;;;;;;4.68;81.61;101117.91;227734;1200;127241;-68
2021/11/14 22:55:12;;;;;;;38.10;21.20;;;;;;;4.64;81.64;101124.84;227020;1200;141366;-67
2021/11/14 23:00:35;;;;;;;41.40;21.40;;;;;;;4.61;81.92;101131.70;226848;1200;141273;-68
2021/11/14 23:05:39;;;;;;;43.00;22.10;;;;;;;4.66;81.88;101136.27;226277;1200;140523;-67
2021/11/14 23:10:41;;;;;;;37.20;22.50;;;;;;;4.64;81.92;101135.64;227943;1200;139809;-68
2021/11/14 23:15:44;;;;;;;46.00;21.40;;;;;;;4.59;81.48;101133.89;228393;1200;142292;-68
2021/11/14 23:20:47;;;;;;;54.90;28.80;;;;;;;4.60;81.72;101143.41;227702;1200;139908;-69
2021/11/14 23:25:51;;;;;;;43.20;25.50;;;;;;;4.57;81.80;101145.17;226952;1199;230715;-70
2021/11/14 23:30:58;;;;;;;50.60;25.50;;;;;;;4.49;81.45;101152.74;228117;1199;140260;-69
2021/11/14 23:36:11;;;;;;;65.30;32.70;;;;;;;4.48;81.54;101152.48;228868;1199;140287;-68
2021/11/14 23:41:18;;;;;;;50.30;29.40;;;;;;;4.48;81.76;101156.90;228996;1200;141238;-69
2021/11/14 23:46:25;;;;;;;56.60;25.00;;;;;;;4.52;81.89;101153.67;228388;1184;139527;-67
2021/11/14 23:51:28;;;;;;;50.10;28.20;;;;;;;4.58;81.65;101152.14;228068;1200;140106;-67